sensor_id;sensor_type;location;lat;lon;timestamp;P1;durP1;ratioP1;P2;durP2;ratioP2
69203;SDS011;56317;27.658;85.326;2022-08-03T00:00:56;12.23;;;5.43;;
69203;SDS011;56317;27.658;85.326;2022-08-03T00:03:24;14.13;;;6.50;;
69203;SDS011;56317;27.658;85.326;2022-08-03T00:05:51;11.57;;;5.88;;
69203;SDS011;56317;27.658;85.326;2022-08-03T00:08:18;14.00;;;6.07;;
69203;SDS011;56317;27.658;85.326;2022-08-03T00:10:45;12.20;;;6.05;;
69203;SDS011;56317;27.658;85.326;2022-08-03T00:13:12;12.77;;;6.18;;
69203;SDS011;56317;27.658;85.326;2022-08-03T00:15:40;10.60;;;5.53;;
69203;SDS011;56317;27.658;85.326;2022-08-03T00:18:08;11.02;;;6.45;;
69203;SDS011;56317;27.658;85.326;2022-08-03T00:20:35;11.98;;;5.28;;
69203;SDS011;56317;27.658;85.326;2022-08-03T00:23:03;11.45;;;5.97;;
69203;SDS011;56317;27.658;85.326;2022-08-03T00:25:31;9.93;;;4.75;;
69203;SDS011;56317;27.658;85.326;2022-08-03T00:28:02;7.68;;;4.07;;
69203;SDS011;56317;27.658;85.326;2022-08-03T00:30:33;7.05;;;3.85;;
69203;SDS011;56317;27.658;85.326;2022-08-03T00:33:00;9.68;;;4.10;;
69203;SDS011;56317;27.658;85.326;2022-08-03T00:35:28;7.13;;;4.05;;
69203;SDS011;56317;27.658;85.326;2022-08-03T00:37:55;6.75;;;3.65;;
69203;SDS011;56317;27.658;85.326;2022-08-03T00:40:22;9.50;;;6.82;;
69203;SDS011;56317;27.658;85.326;2022-08-03T00:42:53;16.98;;;8.60;;
69203;SDS011;56317;27.658;85.326;2022-08-03T00:45:22;10.57;;;7.07;;
69203;SDS011;56317;27.658;85.326;2022-08-03T00:47:54;9.27;;;7.00;;
69203;SDS011;56317;27.658;85.326;2022-08-03T00:50:22;10.70;;;5.72;;
69203;SDS011;56317;27.658;85.326;2022-08-03T00:52:51;7.85;;;6.03;;
69203;SDS011;56317;27.658;85.326;2022-08-03T00:55:21;6.18;;;3.58;;
69203;SDS011;56317;27.658;85.326;2022-08-03T00:57:49;7.75;;;4.18;;
69203;SDS011;56317;27.658;85.326;2022-08-03T01:00:21;8.73;;;5.00;;
69203;SDS011;56317;27.658;85.326;2022-08-03T01:02:50;8.80;;;4.72;;
69203;SDS011;56317;27.658;85.326;2022-08-03T01:05:18;9.88;;;5.53;;
69203;SDS011;56317;27.658;85.326;2022-08-03T01:13:30;9.68;;;5.82;;
69203;SDS011;56317;27.658;85.326;2022-08-03T01:16:26;11.15;;;6.15;;
69203;SDS011;56317;27.658;85.326;2022-08-03T01:30:42;20.05;;;10.07;;
69203;SDS011;56317;27.658;85.326;2022-08-03T01:33:16;14.43;;;8.18;;
69203;SDS011;56317;27.658;85.326;2022-08-03T01:35:52;11.18;;;6.82;;
69203;SDS011;56317;27.658;85.326;2022-08-03T01:38:25;12.13;;;7.07;;
69203;SDS011;56317;27.658;85.326;2022-08-03T01:41:01;13.27;;;7.82;;
69203;SDS011;56317;27.658;85.326;2022-08-03T01:43:41;16.95;;;7.72;;
69203;SDS011;56317;27.658;85.326;2022-08-03T01:46:13;17.52;;;7.32;;
69203;SDS011;56317;27.658;85.326;2022-08-03T01:48:41;15.60;;;7.80;;
69203;SDS011;56317;27.658;85.326;2022-08-03T01:51:09;13.93;;;8.23;;
69203;SDS011;56317;27.658;85.326;2022-08-03T01:53:39;14.82;;;7.07;;
69203;SDS011;56317;27.658;85.326;2022-08-03T01:56:09;18.58;;;7.95;;
69203;SDS011;56317;27.658;85.326;2022-08-03T01:58:38;13.65;;;7.68;;
69203;SDS011;56317;27.658;85.326;2022-08-03T02:01:07;14.40;;;7.00;;
69203;SDS011;56317;27.658;85.326;2022-08-03T02:03:38;13.55;;;8.90;;
69203;SDS011;56317;27.658;85.326;2022-08-03T02:06:11;18.33;;;9.55;;
69203;SDS011;56317;27.658;85.326;2022-08-03T02:08:39;15.00;;;9.45;;
69203;SDS011;56317;27.658;85.326;2022-08-03T02:11:07;18.98;;;10.43;;
69203;SDS011;56317;27.658;85.326;2022-08-03T02:13:35;15.70;;;10.00;;
69203;SDS011;56317;27.658;85.326;2022-08-03T02:16:04;15.82;;;9.60;;
69203;SDS011;56317;27.658;85.326;2022-08-03T02:18:32;18.17;;;9.85;;
69203;SDS011;56317;27.658;85.326;2022-08-03T02:21:00;18.75;;;11.50;;
69203;SDS011;56317;27.658;85.326;2022-08-03T02:23:29;23.55;;;11.02;;
69203;SDS011;56317;27.658;85.326;2022-08-03T02:25:57;19.55;;;12.40;;
69203;SDS011;56317;27.658;85.326;2022-08-03T02:28:30;26.20;;;13.02;;
69203;SDS011;56317;27.658;85.326;2022-08-03T02:31:01;21.48;;;12.35;;
69203;SDS011;56317;27.658;85.326;2022-08-03T02:33:37;17.67;;;12.52;;
69203;SDS011;56317;27.658;85.326;2022-08-03T02:36:12;21.30;;;12.05;;
69203;SDS011;56317;27.658;85.326;2022-08-03T02:38:41;30.85;;;13.07;;
69203;SDS011;56317;27.658;85.326;2022-08-03T02:41:17;23.02;;;12.38;;
69203;SDS011;56317;27.658;85.326;2022-08-03T02:43:50;19.70;;;12.73;;
69203;SDS011;56317;27.658;85.326;2022-08-03T02:46:23;29.27;;;13.27;;
69203;SDS011;56317;27.658;85.326;2022-08-03T02:48:55;24.88;;;15.20;;
69203;SDS011;56317;27.658;85.326;2022-08-03T02:51:25;19.83;;;12.48;;
69203;SDS011;56317;27.658;85.326;2022-08-03T02:54:01;19.27;;;12.52;;
69203;SDS011;56317;27.658;85.326;2022-08-03T02:56:34;18.77;;;11.88;;
69203;SDS011;56317;27.658;85.326;2022-08-03T02:59:02;20.13;;;11.20;;
69203;SDS011;56317;27.658;85.326;2022-08-03T03:01:37;19.30;;;11.85;;
69203;SDS011;56317;27.658;85.326;2022-08-03T03:04:07;18.27;;;11.68;;
69203;SDS011;56317;27.658;85.326;2022-08-03T03:06:45;18.13;;;12.65;;
69203;SDS011;56317;27.658;85.326;2022-08-03T03:09:13;17.23;;;10.00;;
69203;SDS011;56317;27.658;85.326;2022-08-03T03:11:44;16.83;;;12.13;;
69203;SDS011;56317;27.658;85.326;2022-08-03T03:14:13;22.90;;;12.15;;
69203;SDS011;56317;27.658;85.326;2022-08-03T03:16:42;17.50;;;12.57;;
69203;SDS011;56317;27.658;85.326;2022-08-03T03:19:12;21.13;;;12.60;;
69203;SDS011;56317;27.658;85.326;2022-08-03T03:21:41;17.73;;;11.02;;
69203;SDS011;56317;27.658;85.326;2022-08-03T03:24:10;13.32;;;9.00;;
69203;SDS011;56317;27.658;85.326;2022-08-03T03:26:38;12.55;;;8.02;;
69203;SDS011;56317;27.658;85.326;2022-08-03T03:29:05;13.02;;;8.07;;
69203;SDS011;56317;27.658;85.326;2022-08-03T03:31:33;12.43;;;9.18;;
69203;SDS011;56317;27.658;85.326;2022-08-03T03:34:02;15.32;;;10.13;;
69203;SDS011;56317;27.658;85.326;2022-08-03T03:36:29;15.73;;;10.95;;
69203;SDS011;56317;27.658;85.326;2022-08-03T03:38:57;12.95;;;9.10;;
69203;SDS011;56317;27.658;85.326;2022-08-03T03:41:24;13.63;;;8.70;;
69203;SDS011;56317;27.658;85.326;2022-08-03T03:43:51;13.20;;;8.55;;
69203;SDS011;56317;27.658;85.326;2022-08-03T03:46:19;13.30;;;8.80;;
69203;SDS011;56317;27.658;85.326;2022-08-03T03:48:46;19.63;;;9.40;;
69203;SDS011;56317;27.658;85.326;2022-08-03T03:51:13;12.88;;;8.35;;
69203;SDS011;56317;27.658;85.326;2022-08-03T03:54:02;14.93;;;8.65;;
69203;SDS011;56317;27.658;85.326;2022-08-03T03:56:32;13.52;;;8.07;;
69203;SDS011;56317;27.658;85.326;2022-08-03T03:58:59;10.93;;;7.18;;
69203;SDS011;56317;27.658;85.326;2022-08-03T04:01:26;18.80;;;9.73;;
69203;SDS011;56317;27.658;85.326;2022-08-03T04:03:54;13.75;;;8.20;;
69203;SDS011;56317;27.658;85.326;2022-08-03T04:06:23;11.85;;;8.02;;
69203;SDS011;56317;27.658;85.326;2022-08-03T04:09:09;9.38;;;5.85;;
69203;SDS011;56317;27.658;85.326;2022-08-03T04:11:55;13.35;;;6.68;;
69203;SDS011;56317;27.658;85.326;2022-08-03T04:14:27;13.75;;;6.82;;
69203;SDS011;56317;27.658;85.326;2022-08-03T04:17:00;12.77;;;7.43;;
69203;SDS011;56317;27.658;85.326;2022-08-03T04:21:59;14.63;;;8.57;;
69203;SDS011;56317;27.658;85.326;2022-08-03T04:26:59;9.95;;;6.45;;
69203;SDS011;56317;27.658;85.326;2022-08-03T04:29:31;9.70;;;6.15;;
69203;SDS011;56317;27.658;85.326;2022-08-03T04:32:00;12.45;;;6.80;;
69203;SDS011;56317;27.658;85.326;2022-08-03T04:34:30;10.93;;;5.68;;
69203;SDS011;56317;27.658;85.326;2022-08-03T04:36:59;12.82;;;6.03;;
69203;SDS011;56317;27.658;85.326;2022-08-03T04:39:28;10.57;;;6.50;;
69203;SDS011;56317;27.658;85.326;2022-08-03T04:41:58;8.15;;;6.05;;
69203;SDS011;56317;27.658;85.326;2022-08-03T04:44:29;7.53;;;5.13;;
69203;SDS011;56317;27.658;85.326;2022-08-03T04:47:00;7.32;;;5.00;;
69203;SDS011;56317;27.658;85.326;2022-08-03T04:49:28;8.80;;;4.30;;
69203;SDS011;56317;27.658;85.326;2022-08-03T04:51:57;11.45;;;4.75;;
69203;SDS011;56317;27.658;85.326;2022-08-03T04:54:24;7.32;;;4.72;;
69203;SDS011;56317;27.658;85.326;2022-08-03T04:56:51;8.57;;;4.47;;
69203;SDS011;56317;27.658;85.326;2022-08-03T04:59:18;7.43;;;4.68;;
69203;SDS011;56317;27.658;85.326;2022-08-03T05:01:46;9.10;;;3.80;;
69203;SDS011;56317;27.658;85.326;2022-08-03T05:04:13;5.75;;;2.97;;
69203;SDS011;56317;27.658;85.326;2022-08-03T05:06:40;5.57;;;3.33;;
69203;SDS011;56317;27.658;85.326;2022-08-03T05:09:07;5.43;;;3.47;;
69203;SDS011;56317;27.658;85.326;2022-08-03T05:11:34;6.57;;;3.42;;
69203;SDS011;56317;27.658;85.326;2022-08-03T05:14:03;7.40;;;2.92;;
69203;SDS011;56317;27.658;85.326;2022-08-03T05:16:30;6.10;;;3.13;;
69203;SDS011;56317;27.658;85.326;2022-08-03T05:19:00;5.68;;;2.92;;
69203;SDS011;56317;27.658;85.326;2022-08-03T05:21:28;5.38;;;2.70;;
69203;SDS011;56317;27.658;85.326;2022-08-03T05:23:55;7.47;;;4.22;;
69203;SDS011;56317;27.658;85.326;2022-08-03T05:26:22;5.60;;;2.92;;
69203;SDS011;56317;27.658;85.326;2022-08-03T05:28:53;7.05;;;3.20;;
69203;SDS011;56317;27.658;85.326;2022-08-03T05:31:24;9.40;;;3.47;;
69203;SDS011;56317;27.658;85.326;2022-08-03T05:33:51;9.80;;;4.03;;
69203;SDS011;56317;27.658;85.326;2022-08-03T05:36:18;4.57;;;2.65;;
69203;SDS011;56317;27.658;85.326;2022-08-03T05:38:45;5.18;;;3.30;;
69203;SDS011;56317;27.658;85.326;2022-08-03T05:41:13;8.70;;;3.35;;
69203;SDS011;56317;27.658;85.326;2022-08-03T05:43:40;8.63;;;3.15;;
69203;SDS011;56317;27.658;85.326;2022-08-03T05:46:08;5.28;;;2.90;;
69203;SDS011;56317;27.658;85.326;2022-08-03T05:48:35;5.85;;;2.97;;
69203;SDS011;56317;27.658;85.326;2022-08-03T05:51:02;6.32;;;3.00;;
69203;SDS011;56317;27.658;85.326;2022-08-03T05:53:32;5.25;;;2.55;;
69203;SDS011;56317;27.658;85.326;2022-08-03T05:56:00;6.45;;;2.95;;
69203;SDS011;56317;27.658;85.326;2022-08-03T05:58:27;6.55;;;3.17;;
69203;SDS011;56317;27.658;85.326;2022-08-03T06:00:55;7.35;;;3.17;;
69203;SDS011;56317;27.658;85.326;2022-08-03T06:03:23;5.70;;;2.50;;
69203;SDS011;56317;27.658;85.326;2022-08-03T06:05:50;6.68;;;2.63;;
69203;SDS011;56317;27.658;85.326;2022-08-03T06:08:19;6.15;;;2.72;;
69203;SDS011;56317;27.658;85.326;2022-08-03T06:10:46;5.63;;;3.00;;
69203;SDS011;56317;27.658;85.326;2022-08-03T06:13:13;8.68;;;4.68;;
69203;SDS011;56317;27.658;85.326;2022-08-03T06:15:40;4.97;;;2.63;;
69203;SDS011;56317;27.658;85.326;2022-08-03T06:18:07;10.73;;;3.80;;
69203;SDS011;56317;27.658;85.326;2022-08-03T06:20:34;6.80;;;2.90;;
69203;SDS011;56317;27.658;85.326;2022-08-03T06:23:02;8.68;;;3.25;;
69203;SDS011;56317;27.658;85.326;2022-08-03T06:25:29;7.50;;;2.92;;
69203;SDS011;56317;27.658;85.326;2022-08-03T06:27:56;8.98;;;4.70;;
69203;SDS011;56317;27.658;85.326;2022-08-03T06:30:24;10.98;;;4.63;;
69203;SDS011;56317;27.658;85.326;2022-08-03T06:32:52;9.43;;;4.50;;
69203;SDS011;56317;27.658;85.326;2022-08-03T06:35:19;10.27;;;5.38;;
69203;SDS011;56317;27.658;85.326;2022-08-03T06:37:47;13.82;;;5.72;;
69203;SDS011;56317;27.658;85.326;2022-08-03T06:40:16;11.65;;;5.15;;
69203;SDS011;56317;27.658;85.326;2022-08-03T06:42:44;7.90;;;3.60;;
69203;SDS011;56317;27.658;85.326;2022-08-03T06:45:12;11.57;;;4.03;;
69203;SDS011;56317;27.658;85.326;2022-08-03T06:47:39;7.43;;;4.18;;
69203;SDS011;56317;27.658;85.326;2022-08-03T06:50:07;8.18;;;4.63;;
69203;SDS011;56317;27.658;85.326;2022-08-03T06:52:35;12.52;;;4.70;;
69203;SDS011;56317;27.658;85.326;2022-08-03T06:55:03;9.23;;;4.55;;
69203;SDS011;56317;27.658;85.326;2022-08-03T06:57:31;14.73;;;4.25;;
69203;SDS011;56317;27.658;85.326;2022-08-03T06:59:58;14.90;;;5.32;;
69203;SDS011;56317;27.658;85.326;2022-08-03T07:02:27;14.05;;;4.68;;
69203;SDS011;56317;27.658;85.326;2022-08-03T07:04:54;14.35;;;5.38;;
69203;SDS011;56317;27.658;85.326;2022-08-03T07:07:22;14.93;;;5.25;;
69203;SDS011;56317;27.658;85.326;2022-08-03T07:09:49;9.43;;;4.13;;
69203;SDS011;56317;27.658;85.326;2022-08-03T07:12:16;6.88;;;3.70;;
69203;SDS011;56317;27.658;85.326;2022-08-03T07:14:43;10.18;;;4.05;;
69203;SDS011;56317;27.658;85.326;2022-08-03T07:17:10;12.32;;;6.40;;
69203;SDS011;56317;27.658;85.326;2022-08-03T07:19:37;13.85;;;6.03;;
69203;SDS011;56317;27.658;85.326;2022-08-03T07:22:05;11.07;;;6.00;;
69203;SDS011;56317;27.658;85.326;2022-08-03T07:24:34;13.35;;;6.70;;
69203;SDS011;56317;27.658;85.326;2022-08-03T07:27:01;15.05;;;7.05;;
69203;SDS011;56317;27.658;85.326;2022-08-03T07:29:28;12.90;;;6.68;;
69203;SDS011;56317;27.658;85.326;2022-08-03T07:31:56;13.20;;;5.53;;
69203;SDS011;56317;27.658;85.326;2022-08-03T07:34:23;10.30;;;5.53;;
69203;SDS011;56317;27.658;85.326;2022-08-03T07:36:50;10.80;;;6.18;;
69203;SDS011;56317;27.658;85.326;2022-08-03T07:39:17;12.00;;;7.10;;
69203;SDS011;56317;27.658;85.326;2022-08-03T07:41:45;13.10;;;8.43;;
69203;SDS011;56317;27.658;85.326;2022-08-03T07:44:12;12.95;;;7.95;;
69203;SDS011;56317;27.658;85.326;2022-08-03T07:46:39;11.50;;;6.18;;
69203;SDS011;56317;27.658;85.326;2022-08-03T07:49:06;11.80;;;6.35;;
69203;SDS011;56317;27.658;85.326;2022-08-03T07:51:35;10.98;;;4.68;;
69203;SDS011;56317;27.658;85.326;2022-08-03T07:54:02;10.85;;;5.70;;
69203;SDS011;56317;27.658;85.326;2022-08-03T07:56:30;10.32;;;5.13;;
69203;SDS011;56317;27.658;85.326;2022-08-03T07:58:57;10.55;;;6.22;;
69203;SDS011;56317;27.658;85.326;2022-08-03T08:01:24;10.52;;;5.63;;
69203;SDS011;56317;27.658;85.326;2022-08-03T08:03:51;11.13;;;6.60;;
69203;SDS011;56317;27.658;85.326;2022-08-03T08:06:19;10.77;;;6.05;;
69203;SDS011;56317;27.658;85.326;2022-08-03T08:08:47;12.02;;;5.35;;
69203;SDS011;56317;27.658;85.326;2022-08-03T08:11:14;9.88;;;5.38;;
69203;SDS011;56317;27.658;85.326;2022-08-03T08:13:41;10.85;;;5.72;;
69203;SDS011;56317;27.658;85.326;2022-08-03T08:16:08;11.90;;;6.50;;
69203;SDS011;56317;27.658;85.326;2022-08-03T08:18:38;14.73;;;7.53;;
69203;SDS011;56317;27.658;85.326;2022-08-03T08:21:05;11.65;;;6.05;;
69203;SDS011;56317;27.658;85.326;2022-08-03T08:23:33;11.82;;;7.35;;
69203;SDS011;56317;27.658;85.326;2022-08-03T08:26:00;12.77;;;7.00;;
69203;SDS011;56317;27.658;85.326;2022-08-03T08:28:27;13.68;;;7.07;;
69203;SDS011;56317;27.658;85.326;2022-08-03T08:30:54;12.15;;;7.72;;
69203;SDS011;56317;27.658;85.326;2022-08-03T08:33:21;11.32;;;7.57;;
69203;SDS011;56317;27.658;85.326;2022-08-03T08:35:48;11.38;;;6.55;;
69203;SDS011;56317;27.658;85.326;2022-08-03T08:38:17;12.88;;;7.60;;
69203;SDS011;56317;27.658;85.326;2022-08-03T08:40:44;13.98;;;8.13;;
69203;SDS011;56317;27.658;85.326;2022-08-03T08:43:12;16.17;;;8.63;;
69203;SDS011;56317;27.658;85.326;2022-08-03T08:45:39;15.25;;;7.05;;
69203;SDS011;56317;27.658;85.326;2022-08-03T08:48:07;14.57;;;7.38;;
69203;SDS011;56317;27.658;85.326;2022-08-03T08:50:36;19.65;;;7.68;;
69203;SDS011;56317;27.658;85.326;2022-08-03T08:53:03;11.88;;;6.68;;
69203;SDS011;56317;27.658;85.326;2022-08-03T08:55:34;12.73;;;6.95;;
69203;SDS011;56317;27.658;85.326;2022-08-03T08:58:04;11.65;;;7.25;;
69203;SDS011;56317;27.658;85.326;2022-08-03T09:00:34;11.45;;;6.95;;
69203;SDS011;56317;27.658;85.326;2022-08-03T09:03:01;13.25;;;7.18;;
69203;SDS011;56317;27.658;85.326;2022-08-03T09:05:28;10.10;;;5.95;;
69203;SDS011;56317;27.658;85.326;2022-08-03T09:07:58;11.88;;;7.07;;
69203;SDS011;56317;27.658;85.326;2022-08-03T09:10:26;11.35;;;6.72;;
69203;SDS011;56317;27.658;85.326;2022-08-03T09:12:54;14.63;;;8.02;;
69203;SDS011;56317;27.658;85.326;2022-08-03T09:15:24;11.70;;;6.50;;
69203;SDS011;56317;27.658;85.326;2022-08-03T09:17:54;15.15;;;8.00;;
69203;SDS011;56317;27.658;85.326;2022-08-03T09:20:23;15.85;;;7.30;;
69203;SDS011;56317;27.658;85.326;2022-08-03T09:23:00;21.23;;;7.15;;
69203;SDS011;56317;27.658;85.326;2022-08-03T09:25:35;14.15;;;7.10;;
69203;SDS011;56317;27.658;85.326;2022-08-03T09:28:07;12.38;;;6.30;;
69203;SDS011;56317;27.658;85.326;2022-08-03T09:33:05;12.93;;;5.90;;
69203;SDS011;56317;27.658;85.326;2022-08-03T09:35:41;16.83;;;7.13;;
69203;SDS011;56317;27.658;85.326;2022-08-03T09:38:15;12.52;;;6.78;;
69203;SDS011;56317;27.658;85.326;2022-08-03T09:40:44;14.68;;;7.32;;
69203;SDS011;56317;27.658;85.326;2022-08-03T09:43:11;15.98;;;7.55;;
69203;SDS011;56317;27.658;85.326;2022-08-03T09:45:39;14.82;;;6.55;;
69203;SDS011;56317;27.658;85.326;2022-08-03T09:48:26;16.15;;;6.35;;
69203;SDS011;56317;27.658;85.326;2022-08-03T09:50:55;13.65;;;6.28;;
69203;SDS011;56317;27.658;85.326;2022-08-03T09:53:27;16.30;;;6.70;;
69203;SDS011;56317;27.658;85.326;2022-08-03T09:58:24;15.90;;;7.78;;
69203;SDS011;56317;27.658;85.326;2022-08-03T10:03:26;15.25;;;7.43;;
69203;SDS011;56317;27.658;85.326;2022-08-03T10:05:54;8.80;;;5.50;;
69203;SDS011;56317;27.658;85.326;2022-08-03T10:08:23;8.93;;;4.60;;
69203;SDS011;56317;27.658;85.326;2022-08-03T10:10:51;10.20;;;5.75;;
69203;SDS011;56317;27.658;85.326;2022-08-03T10:13:19;19.88;;;11.13;;
69203;SDS011;56317;27.658;85.326;2022-08-03T10:15:48;8.27;;;4.90;;
69203;SDS011;56317;27.658;85.326;2022-08-03T10:18:15;7.90;;;4.95;;
69203;SDS011;56317;27.658;85.326;2022-08-03T10:20:45;10.20;;;5.32;;
69203;SDS011;56317;27.658;85.326;2022-08-03T10:23:17;9.98;;;5.65;;
69203;SDS011;56317;27.658;85.326;2022-08-03T10:25:45;12.55;;;5.90;;
69203;SDS011;56317;27.658;85.326;2022-08-03T10:28:15;10.27;;;5.97;;
69203;SDS011;56317;27.658;85.326;2022-08-03T10:30:46;10.77;;;6.30;;
69203;SDS011;56317;27.658;85.326;2022-08-03T10:35:44;11.68;;;7.22;;
69203;SDS011;56317;27.658;85.326;2022-08-03T10:38:17;12.43;;;7.70;;
69203;SDS011;56317;27.658;85.326;2022-08-03T10:40:47;12.68;;;6.93;;
69203;SDS011;56317;27.658;85.326;2022-08-03T10:43:54;12.35;;;6.43;;
69203;SDS011;56317;27.658;85.326;2022-08-03T10:46:16;9.30;;;5.30;;
69203;SDS011;56317;27.658;85.326;2022-08-03T10:48:46;9.52;;;6.03;;
69203;SDS011;56317;27.658;85.326;2022-08-03T10:51:16;8.60;;;6.30;;
69203;SDS011;56317;27.658;85.326;2022-08-03T10:53:45;8.23;;;5.38;;
69203;SDS011;56317;27.658;85.326;2022-08-03T10:59:16;9.38;;;5.60;;
69203;SDS011;56317;27.658;85.326;2022-08-03T11:04:20;11.68;;;6.40;;
69203;SDS011;56317;27.658;85.326;2022-08-03T11:09:47;11.95;;;6.88;;
69203;SDS011;56317;27.658;85.326;2022-08-03T11:12:25;11.35;;;7.07;;
69203;SDS011;56317;27.658;85.326;2022-08-03T11:17:25;11.93;;;7.88;;
69203;SDS011;56317;27.658;85.326;2022-08-03T11:19:53;15.13;;;9.23;;
69203;SDS011;56317;27.658;85.326;2022-08-03T11:22:20;15.50;;;8.73;;
69203;SDS011;56317;27.658;85.326;2022-08-03T11:35:12;21.63;;;10.60;;
69203;SDS011;56317;27.658;85.326;2022-08-03T11:38:21;20.25;;;9.27;;
69203;SDS011;56317;27.658;85.326;2022-08-03T11:46:09;17.73;;;8.60;;
69203;SDS011;56317;27.658;85.326;2022-08-03T11:48:49;23.88;;;9.02;;
69203;SDS011;56317;27.658;85.326;2022-08-03T11:51:20;31.43;;;9.00;;
69203;SDS011;56317;27.658;85.326;2022-08-03T11:53:56;28.23;;;8.25;;
69203;SDS011;56317;27.658;85.326;2022-08-03T11:56:23;23.55;;;8.90;;
69203;SDS011;56317;27.658;85.326;2022-08-03T11:58:52;20.13;;;9.20;;
69203;SDS011;56317;27.658;85.326;2022-08-03T12:01:22;25.13;;;9.40;;
69203;SDS011;56317;27.658;85.326;2022-08-03T12:03:50;26.30;;;9.60;;
69203;SDS011;56317;27.658;85.326;2022-08-03T12:06:18;22.75;;;8.70;;
69203;SDS011;56317;27.658;85.326;2022-08-03T12:08:45;35.83;;;14.93;;
69203;SDS011;56317;27.658;85.326;2022-08-03T12:11:13;39.95;;;12.00;;
69203;SDS011;56317;27.658;85.326;2022-08-03T12:13:42;20.73;;;10.90;;
69203;SDS011;56317;27.658;85.326;2022-08-03T12:16:22;36.38;;;13.70;;
69203;SDS011;56317;27.658;85.326;2022-08-03T12:18:57;19.15;;;9.13;;
69203;SDS011;56317;27.658;85.326;2022-08-03T12:21:25;15.85;;;8.73;;
69203;SDS011;56317;27.658;85.326;2022-08-03T12:24:02;27.45;;;11.70;;
69203;SDS011;56317;27.658;85.326;2022-08-03T12:26:41;19.13;;;8.25;;
69203;SDS011;56317;27.658;85.326;2022-08-03T12:29:16;20.67;;;9.25;;
69203;SDS011;56317;27.658;85.326;2022-08-03T12:31:44;19.75;;;8.35;;
69203;SDS011;56317;27.658;85.326;2022-08-03T12:34:11;23.15;;;8.73;;
69203;SDS011;56317;27.658;85.326;2022-08-03T12:36:48;23.30;;;8.75;;
69203;SDS011;56317;27.658;85.326;2022-08-03T12:39:17;17.67;;;6.78;;
69203;SDS011;56317;27.658;85.326;2022-08-03T12:41:51;19.35;;;7.70;;
69203;SDS011;56317;27.658;85.326;2022-08-03T12:44:28;17.83;;;7.25;;
69203;SDS011;56317;27.658;85.326;2022-08-03T12:46:56;18.10;;;7.78;;
69203;SDS011;56317;27.658;85.326;2022-08-03T12:49:24;22.63;;;8.10;;
69203;SDS011;56317;27.658;85.326;2022-08-03T12:56:59;17.40;;;8.35;;
69203;SDS011;56317;27.658;85.326;2022-08-03T12:59:34;20.00;;;7.97;;
69203;SDS011;56317;27.658;85.326;2022-08-03T13:02:04;21.55;;;8.70;;
69203;SDS011;56317;27.658;85.326;2022-08-03T13:04:32;17.40;;;7.63;;
69203;SDS011;56317;27.658;85.326;2022-08-03T13:10:05;14.93;;;7.03;;
69203;SDS011;56317;27.658;85.326;2022-08-03T13:12:26;12.93;;;7.40;;
69203;SDS011;56317;27.658;85.326;2022-08-03T13:14:55;23.30;;;8.10;;
69203;SDS011;56317;27.658;85.326;2022-08-03T13:17:23;20.30;;;8.07;;
69203;SDS011;56317;27.658;85.326;2022-08-03T13:19:51;18.13;;;8.10;;
69203;SDS011;56317;27.658;85.326;2022-08-03T13:22:19;18.10;;;8.65;;
69203;SDS011;56317;27.658;85.326;2022-08-03T13:24:49;13.00;;;7.43;;
69203;SDS011;56317;27.658;85.326;2022-08-03T13:27:17;17.90;;;7.88;;
69203;SDS011;56317;27.658;85.326;2022-08-03T13:29:45;15.98;;;8.50;;
69203;SDS011;56317;27.658;85.326;2022-08-03T13:32:12;16.65;;;8.63;;
69203;SDS011;56317;27.658;85.326;2022-08-03T13:34:39;17.25;;;7.95;;
69203;SDS011;56317;27.658;85.326;2022-08-03T13:37:07;15.57;;;8.65;;
69203;SDS011;56317;27.658;85.326;2022-08-03T13:39:34;18.35;;;8.45;;
69203;SDS011;56317;27.658;85.326;2022-08-03T13:42:02;15.40;;;8.02;;
69203;SDS011;56317;27.658;85.326;2022-08-03T13:44:30;12.57;;;7.20;;
69203;SDS011;56317;27.658;85.326;2022-08-03T13:46:57;18.45;;;7.93;;
69203;SDS011;56317;27.658;85.326;2022-08-03T13:49:28;16.58;;;7.30;;
69203;SDS011;56317;27.658;85.326;2022-08-03T13:51:55;20.00;;;8.48;;
69203;SDS011;56317;27.658;85.326;2022-08-03T13:54:22;18.92;;;8.27;;
69203;SDS011;56317;27.658;85.326;2022-08-03T13:56:49;14.80;;;7.45;;
69203;SDS011;56317;27.658;85.326;2022-08-03T13:59:20;19.75;;;8.23;;
69203;SDS011;56317;27.658;85.326;2022-08-03T14:01:49;16.67;;;8.43;;
69203;SDS011;56317;27.658;85.326;2022-08-03T14:04:20;20.52;;;9.20;;
69203;SDS011;56317;27.658;85.326;2022-08-03T14:06:54;24.83;;;9.05;;
69203;SDS011;56317;27.658;85.326;2022-08-03T14:09:27;13.55;;;7.40;;
69203;SDS011;56317;27.658;85.326;2022-08-03T14:11:54;12.18;;;6.45;;
69203;SDS011;56317;27.658;85.326;2022-08-03T14:14:21;11.65;;;6.35;;
69203;SDS011;56317;27.658;85.326;2022-08-03T14:16:48;14.23;;;7.38;;
69203;SDS011;56317;27.658;85.326;2022-08-03T14:19:15;13.65;;;7.10;;
69203;SDS011;56317;27.658;85.326;2022-08-03T14:21:42;16.20;;;7.38;;
69203;SDS011;56317;27.658;85.326;2022-08-03T14:24:09;15.75;;;7.50;;
69203;SDS011;56317;27.658;85.326;2022-08-03T14:26:37;20.50;;;7.65;;
69203;SDS011;56317;27.658;85.326;2022-08-03T14:29:04;17.88;;;7.15;;
69203;SDS011;56317;27.658;85.326;2022-08-03T14:31:31;13.00;;;6.20;;
69203;SDS011;56317;27.658;85.326;2022-08-03T14:33:58;18.23;;;7.55;;
69203;SDS011;56317;27.658;85.326;2022-08-03T14:36:25;12.75;;;7.03;;
69203;SDS011;56317;27.658;85.326;2022-08-03T14:38:52;12.55;;;5.80;;
69203;SDS011;56317;27.658;85.326;2022-08-03T14:41:20;15.65;;;7.15;;
69203;SDS011;56317;27.658;85.326;2022-08-03T14:43:47;13.18;;;6.03;;
69203;SDS011;56317;27.658;85.326;2022-08-03T14:46:14;15.13;;;7.28;;
69203;SDS011;56317;27.658;85.326;2022-08-03T14:48:41;17.25;;;6.55;;
69203;SDS011;56317;27.658;85.326;2022-08-03T14:51:08;11.55;;;6.55;;
69203;SDS011;56317;27.658;85.326;2022-08-03T14:53:36;13.00;;;6.07;;
69203;SDS011;56317;27.658;85.326;2022-08-03T14:56:03;12.20;;;6.13;;
69203;SDS011;56317;27.658;85.326;2022-08-03T14:58:30;14.00;;;6.72;;
69203;SDS011;56317;27.658;85.326;2022-08-03T15:00:57;14.15;;;6.30;;
69203;SDS011;56317;27.658;85.326;2022-08-03T15:03:24;13.48;;;7.03;;
69203;SDS011;56317;27.658;85.326;2022-08-03T15:05:52;13.77;;;6.82;;
69203;SDS011;56317;27.658;85.326;2022-08-03T15:08:21;11.60;;;5.80;;
69203;SDS011;56317;27.658;85.326;2022-08-03T15:10:50;22.20;;;10.48;;
69203;SDS011;56317;27.658;85.326;2022-08-03T15:13:18;15.93;;;8.35;;
69203;SDS011;56317;27.658;85.326;2022-08-03T15:15:46;21.42;;;9.98;;
69203;SDS011;56317;27.658;85.326;2022-08-03T15:18:14;23.02;;;9.88;;
69203;SDS011;56317;27.658;85.326;2022-08-03T15:20:41;16.27;;;8.82;;
69203;SDS011;56317;27.658;85.326;2022-08-03T15:23:10;17.05;;;9.15;;
69203;SDS011;56317;27.658;85.326;2022-08-03T15:25:40;15.43;;;8.40;;
69203;SDS011;56317;27.658;85.326;2022-08-03T15:28:08;15.80;;;7.72;;
69203;SDS011;56317;27.658;85.326;2022-08-03T15:30:35;16.52;;;8.45;;
69203;SDS011;56317;27.658;85.326;2022-08-03T15:33:03;12.82;;;6.22;;
69203;SDS011;56317;27.658;85.326;2022-08-03T15:35:30;11.35;;;6.13;;
69203;SDS011;56317;27.658;85.326;2022-08-03T15:37:57;11.18;;;6.07;;
69203;SDS011;56317;27.658;85.326;2022-08-03T15:40:24;13.77;;;7.28;;
69203;SDS011;56317;27.658;85.326;2022-08-03T15:42:52;13.05;;;6.68;;